sensor_id;sensor_type;location;lat;lon;timestamp;pressure;altitude;pressure_sealevel;temperature;humidity
57606;BME280;43430;48.204;11.556;2022-10-30T00:01:55;96560.25;;;10.75;100.00
57606;BME280;43430;48.204;11.556;2022-10-30T00:04:21;96562.88;;;10.75;100.00
57606;BME280;43430;48.204;11.556;2022-10-30T00:06:47;96560.03;;;10.77;100.00
57606;BME280;43430;48.204;11.556;2022-10-30T00:09:12;96558.81;;;10.79;100.00
57606;BME280;43430;48.204;11.556;2022-10-30T00:11:39;96550.09;;;10.79;100.00
57606;BME280;43430;48.204;11.556;2022-10-30T00:14:04;96560.22;;;10.82;100.00
57606;BME280;43430;48.204;11.556;2022-10-30T00:16:30;96557.19;;;10.78;100.00
57606;BME280;43430;48.204;11.556;2022-10-30T00:18:55;96557.59;;;10.75;100.00
57606;BME280;43430;48.204;11.556;2022-10-30T00:21:20;96567.56;;;10.66;100.00
57606;BME280;43430;48.204;11.556;2022-10-30T00:23:47;96565.94;;;10.65;100.00
57606;BME280;43430;48.204;11.556;2022-10-30T00:26:14;96565.56;;;10.62;100.00
57606;BME280;43430;48.204;11.556;2022-10-30T00:28:39;96568.03;;;10.57;100.00
57606;BME280;43430;48.204;11.556;2022-10-30T00:31:05;96561.72;;;10.58;100.00
57606;BME280;43430;48.204;11.556;2022-10-30T00:33:30;96555.84;;;10.49;100.00
57606;BME280;43430;48.204;11.556;2022-10-30T00:35:56;96554.88;;;10.43;100.00
57606;BME280;43430;48.204;11.556;2022-10-30T00:38:21;96562.78;;;10.37;100.00
57606;BME280;43430;48.204;11.556;2022-10-30T00:40:47;96571.50;;;10.37;100.00
57606;BME280;43430;48.204;11.556;2022-10-30T00:43:45;96561.13;;;10.42;100.00
57606;BME280;43430;48.204;11.556;2022-10-30T00:46:28;96555.84;;;10.42;100.00
57606;BME280;43430;48.204;11.556;2022-10-30T00:49:00;96557.09;;;10.40;100.00
57606;BME280;43430;48.204;11.556;2022-10-30T00:51:28;96547.75;;;10.44;100.00
57606;BME280;43430;48.204;11.556;2022-10-30T00:53:55;96549.78;;;10.35;100.00
57606;BME280;43430;48.204;11.556;2022-10-30T00:56:23;96548.78;;;10.36;100.00
57606;BME280;43430;48.204;11.556;2022-10-30T00:58:55;96551.44;;;10.36;100.00
57606;BME280;43430;48.204;11.556;2022-10-30T01:01:23;96545.34;;;10.36;100.00
57606;BME280;43430;48.204;11.556;2022-10-30T01:03:53;96553.06;;;10.31;100.00
57606;BME280;43430;48.204;11.556;2022-10-30T01:06:20;96553.03;;;10.24;100.00
57606;BME280;43430;48.204;11.556;2022-10-30T01:08:47;96554.47;;;10.20;100.00
57606;BME280;43430;48.204;11.556;2022-10-30T01:11:13;96557.09;;;10.13;100.00
57606;BME280;43430;48.204;11.556;2022-10-30T01:13:41;96552.03;;;10.12;100.00
57606;BME280;43430;48.204;11.556;2022-10-30T01:22:06;96552.25;;;10.10;100.00
57606;BME280;43430;48.204;11.556;2022-10-30T01:35:56;96563.00;;;9.89;100.00
57606;BME280;43430;48.204;11.556;2022-10-30T01:38:32;96573.72;;;9.74;100.00
57606;BME280;43430;48.204;11.556;2022-10-30T01:40:59;96573.09;;;9.72;100.00
57606;BME280;43430;48.204;11.556;2022-10-30T01:43:24;96564.97;;;9.67;100.00
57606;BME280;43430;48.204;11.556;2022-10-30T01:46:16;96574.53;;;9.68;100.00
57606;BME280;43430;48.204;11.556;2022-10-30T01:54:36;96571.66;;;9.49;100.00
57606;BME280;43430;48.204;11.556;2022-10-30T01:57:21;96574.09;;;9.44;100.00
57606;BME280;43430;48.204;11.556;2022-10-30T01:59:58;96574.47;;;9.35;100.00
57606;BME280;43430;48.204;11.556;2022-10-30T02:02:25;96578.91;;;9.34;100.00
57606;BME280;43430;48.204;11.556;2022-10-30T02:04:51;96581.34;;;9.29;100.00
57606;BME280;43430;48.204;11.556;2022-10-30T02:07:17;96586.59;;;9.29;100.00
57606;BME280;43430;48.204;11.556;2022-10-30T02:09:42;96578.31;;;9.39;100.00
57606;BME280;43430;48.204;11.556;2022-10-30T02:12:08;96581.75;;;9.46;100.00
57606;BME280;43430;48.204;11.556;2022-10-30T02:14:43;96576.09;;;9.49;100.00
57606;BME280;43430;48.204;11.556;2022-10-30T02:17:10;96583.81;;;9.50;100.00
57606;BME280;43430;48.204;11.556;2022-10-30T02:19:36;96570.03;;;9.48;100.00
57606;BME280;43430;48.204;11.556;2022-10-30T02:22:02;96569.22;;;9.48;100.00
57606;BME280;43430;48.204;11.556;2022-10-30T02:24:29;96570.25;;;9.47;100.00
57606;BME280;43430;48.204;11.556;2022-10-30T02:26:54;96578.16;;;9.47;100.00
57606;BME280;43430;48.204;11.556;2022-10-30T02:29:20;96562.94;;;9.42;100.00
57606;BME280;43430;48.204;11.556;2022-10-30T02:31:46;96574.88;;;9.38;100.00
57606;BME280;43430;48.204;11.556;2022-10-30T02:34:12;96564.75;;;9.35;100.00
57606;BME280;43430;48.204;11.556;2022-10-30T02:36:37;96570.22;;;9.34;100.00
57606;BME280;43430;48.204;11.556;2022-10-30T02:39:03;96564.31;;;9.32;100.00
57606;BME280;43430;48.204;11.556;2022-10-30T02:41:29;96560.47;;;9.27;100.00
57606;BME280;43430;48.204;11.556;2022-10-30T02:43:54;96559.88;;;9.32;100.00
57606;BME280;43430;48.204;11.556;2022-10-30T02:46:19;96558.66;;;9.28;100.00
57606;BME280;43430;48.204;11.556;2022-10-30T02:48:45;96554.19;;;9.28;100.00
57606;BME280;43430;48.204;11.556;2022-10-30T02:51:10;96555.44;;;9.26;100.00
57606;BME280;43430;48.204;11.556;2022-10-30T02:53:36;96556.00;;;9.21;100.00
57606;BME280;43430;48.204;11.556;2022-10-30T02:56:07;96550.16;;;9.19;100.00
57606;BME280;43430;48.204;11.556;2022-10-30T02:58:33;96557.00;;;9.14;100.00
57606;BME280;43430;48.204;11.556;2022-10-30T03:01:09;96551.53;;;9.22;100.00
57606;BME280;43430;48.204;11.556;2022-10-30T03:03:35;96560.25;;;9.16;100.00
57606;BME280;43430;48.204;11.556;2022-10-30T03:06:05;96552.97;;;9.18;100.00
57606;BME280;43430;48.204;11.556;2022-10-30T03:08:31;96562.59;;;8.97;100.00
57606;BME280;43430;48.204;11.556;2022-10-30T03:11:02;96568.88;;;8.96;100.00
57606;BME280;43430;48.204;11.556;2022-10-30T03:13:29;96573.97;;;9.04;100.00
57606;BME280;43430;48.204;11.556;2022-10-30T03:16:03;96558.59;;;9.08;100.00
57606;BME280;43430;48.204;11.556;2022-10-30T03:18:29;96555.38;;;9.13;100.00
57606;BME280;43430;48.204;11.556;2022-10-30T03:20:56;96550.69;;;9.08;100.00
57606;BME280;43430;48.204;11.556;2022-10-30T03:23:22;96552.94;;;9.11;100.00
57606;BME280;43430;48.204;11.556;2022-10-30T03:25:51;96555.56;;;9.11;100.00
57606;BME280;43430;48.204;11.556;2022-10-30T03:28:16;96547.09;;;9.09;100.00
57606;BME280;43430;48.204;11.556;2022-10-30T03:30:41;96545.84;;;9.12;100.00
57606;BME280;43430;48.204;11.556;2022-10-30T03:33:07;96550.50;;;9.10;100.00
57606;BME280;43430;48.204;11.556;2022-10-30T03:35:34;96540.19;;;9.08;100.00
57606;BME280;43430;48.204;11.556;2022-10-30T03:38:00;96544.44;;;9.09;100.00
57606;BME280;43430;48.204;11.556;2022-10-30T03:40:25;96547.50;;;9.13;100.00
57606;BME280;43430;48.204;11.556;2022-10-30T03:42:50;96545.66;;;9.13;100.00
57606;BME280;43430;48.204;11.556;2022-10-30T03:45:15;96546.66;;;9.06;100.00
57606;BME280;43430;48.204;11.556;2022-10-30T03:47:41;96551.69;;;9.00;100.00
57606;BME280;43430;48.204;11.556;2022-10-30T03:50:06;96557.72;;;8.94;100.00
57606;BME280;43430;48.204;11.556;2022-10-30T03:52:32;96564.59;;;8.89;100.00
57606;BME280;43430;48.204;11.556;2022-10-30T03:54:57;96574.94;;;8.97;100.00
57606;BME280;43430;48.204;11.556;2022-10-30T03:57:22;96568.50;;;8.99;100.00
57606;BME280;43430;48.204;11.556;2022-10-30T03:59:48;96565.25;;;9.04;100.00
57606;BME280;43430;48.204;11.556;2022-10-30T04:02:13;96566.69;;;9.07;100.00
57606;BME280;43430;48.204;11.556;2022-10-30T04:04:38;96551.72;;;9.07;100.00
57606;BME280;43430;48.204;11.556;2022-10-30T04:07:03;96554.97;;;9.09;100.00
57606;BME280;43430;48.204;11.556;2022-10-30T04:09:29;96563.03;;;9.01;100.00
57606;BME280;43430;48.204;11.556;2022-10-30T04:11:54;96562.59;;;8.97;100.00
57606;BME280;43430;48.204;11.556;2022-10-30T04:14:19;96563.63;;;8.96;100.00
57606;BME280;43430;48.204;11.556;2022-10-30T04:16:45;96563.00;;;8.94;100.00
57606;BME280;43430;48.204;11.556;2022-10-30T04:19:10;96562.19;;;8.94;100.00
57606;BME280;43430;48.204;11.556;2022-10-30T04:21:35;96560.16;;;8.89;100.00
57606;BME280;43430;48.204;11.556;2022-10-30T04:24:02;96569.03;;;8.82;100.00
57606;BME280;43430;48.204;11.556;2022-10-30T04:26:27;96561.16;;;8.82;100.00
57606;BME280;43430;48.204;11.556;2022-10-30T04:28:53;96567.81;;;8.77;100.00
57606;BME280;43430;48.204;11.556;2022-10-30T04:31:18;96566.13;;;8.70;100.00
57606;BME280;43430;48.204;11.556;2022-10-30T04:33:43;96567.81;;;8.77;100.00
57606;BME280;43430;48.204;11.556;2022-10-30T04:36:09;96559.91;;;8.77;100.00
57606;BME280;43430;48.204;11.556;2022-10-30T04:38:34;96559.28;;;8.75;100.00
57606;BME280;43430;48.204;11.556;2022-10-30T04:41:00;96557.25;;;8.71;100.00
57606;BME280;43430;48.204;11.556;2022-10-30T04:43:25;96558.88;;;8.72;100.00
57606;BME280;43430;48.204;11.556;2022-10-30T04:45:50;96555.22;;;8.73;100.00
57606;BME280;43430;48.204;11.556;2022-10-30T04:48:16;96547.34;;;8.73;100.00
57606;BME280;43430;48.204;11.556;2022-10-30T04:50:43;96541.06;;;8.67;100.00
57606;BME280;43430;48.204;11.556;2022-10-30T04:53:13;96542.69;;;8.68;100.00
57606;BME280;43430;48.204;11.556;2022-10-30T04:55:39;96540.66;;;8.70;100.00
57606;BME280;43430;48.204;11.556;2022-10-30T04:58:05;96542.28;;;8.71;100.00
57606;BME280;43430;48.204;11.556;2022-10-30T05:00:32;96541.66;;;8.69;100.00
57606;BME280;43430;48.204;11.556;2022-10-30T05:03:00;96535.56;;;8.62;100.00
57606;BME280;43430;48.204;11.556;2022-10-30T05:05:27;96535.19;;;8.65;100.00
57606;BME280;43430;48.204;11.556;2022-10-30T05:07:53;96533.19;;;8.67;100.00
57606;BME280;43430;48.204;11.556;2022-10-30T05:10:18;96533.34;;;8.66;100.00
57606;BME280;43430;48.204;11.556;2022-10-30T05:12:44;96527.69;;;8.62;100.00
57606;BME280;43430;48.204;11.556;2022-10-30T05:15:11;96528.88;;;8.60;100.00
57606;BME280;43430;48.204;11.556;2022-10-30T05:17:37;96529.88;;;8.59;100.00
57606;BME280;43430;48.204;11.556;2022-10-30T05:20:03;96525.66;;;8.58;100.00
57606;BME280;43430;48.204;11.556;2022-10-30T05:22:29;96529.06;;;8.58;100.00
57606;BME280;43430;48.204;11.556;2022-10-30T05:24:54;96526.84;;;8.55;100.00
57606;BME280;43430;48.204;11.556;2022-10-30T05:27:20;96524.41;;;8.53;100.00
57606;BME280;43430;48.204;11.556;2022-10-30T05:29:45;96527.03;;;8.53;100.00
57606;BME280;43430;48.204;11.556;2022-10-30T05:32:10;96523.19;;;8.56;100.00
57606;BME280;43430;48.204;11.556;2022-10-30T05:34:35;96524.41;;;8.53;100.00
57606;BME280;43430;48.204;11.556;2022-10-30T05:37:01;96517.91;;;8.49;100.00
57606;BME280;43430;48.204;11.556;2022-10-30T05:39:26;96526.63;;;8.50;100.00
57606;BME280;43430;48.204;11.556;2022-10-30T05:41:52;96528.63;;;8.48;100.00
57606;BME280;43430;48.204;11.556;2022-10-30T05:44:17;96530.06;;;8.50;100.00
57606;BME280;43430;48.204;11.556;2022-10-30T05:46:43;96523.78;;;8.51;100.00
57606;BME280;43430;48.204;11.556;2022-10-30T05:49:08;96517.09;;;8.49;100.00
57606;BME280;43430;48.204;11.556;2022-10-30T05:51:33;96525.41;;;8.52;100.00
57606;BME280;43430;48.204;11.556;2022-10-30T05:53:59;96510.66;;;8.51;100.00
57606;BME280;43430;48.204;11.556;2022-10-30T05:56:24;96514.06;;;8.45;100.00
57606;BME280;43430;48.204;11.556;2022-10-30T05:58:50;96519.31;;;8.45;100.00
57606;BME280;43430;48.204;11.556;2022-10-30T06:01:16;96523.16;;;8.49;100.00
57606;BME280;43430;48.204;11.556;2022-10-30T06:03:41;96531.69;;;8.51;100.00
57606;BME280;43430;48.204;11.556;2022-10-30T06:06:07;96528.63;;;8.48;100.00
57606;BME280;43430;48.204;11.556;2022-10-30T06:08:33;96531.69;;;8.51;100.00
57606;BME280;43430;48.204;11.556;2022-10-30T06:10:58;96528.47;;;8.63;100.00
57606;BME280;43430;48.204;11.556;2022-10-30T06:13:23;96531.34;;;8.68;100.00
57606;BME280;43430;48.204;11.556;2022-10-30T06:15:49;96514.94;;;8.66;100.00
57606;BME280;43430;48.204;11.556;2022-10-30T06:18:14;96517.59;;;8.66;100.00
57606;BME280;43430;48.204;11.556;2022-10-30T06:20:39;96520.22;;;8.66;100.00
57606;BME280;43430;48.204;11.556;2022-10-30T06:23:06;96519.44;;;8.72;100.00
57606;BME280;43430;48.204;11.556;2022-10-30T06:25:34;96523.50;;;8.74;100.00
57606;BME280;43430;48.204;11.556;2022-10-30T06:28:00;96514.16;;;8.65;100.00
57606;BME280;43430;48.204;11.556;2022-10-30T06:30:25;96529.34;;;8.76;100.00
57606;BME280;43430;48.204;11.556;2022-10-30T06:32:58;96533.63;;;8.84;100.00
57606;BME280;43430;48.204;11.556;2022-10-30T06:35:24;96533.06;;;8.95;100.00
57606;BME280;43430;48.204;11.556;2022-10-30T06:37:51;96529.88;;;9.07;100.00
57606;BME280;43430;48.204;11.556;2022-10-30T06:40:17;96527.63;;;9.03;100.00
57606;BME280;43430;48.204;11.556;2022-10-30T06:42:47;96528.88;;;9.14;100.00
57606;BME280;43430;48.204;11.556;2022-10-30T06:45:14;96524.66;;;9.33;100.00
57606;BME280;43430;48.204;11.556;2022-10-30T06:47:40;96533.56;;;9.32;100.00
57606;BME280;43430;48.204;11.556;2022-10-30T06:50:08;96521.03;;;9.47;100.00
57606;BME280;43430;48.204;11.556;2022-10-30T06:52:34;96526.09;;;9.62;100.00
57606;BME280;43430;48.204;11.556;2022-10-30T06:55:00;96527.94;;;9.75;100.00
57606;BME280;43430;48.204;11.556;2022-10-30T06:57:25;96521.88;;;9.88;100.00
57606;BME280;43430;48.204;11.556;2022-10-30T06:59:51;96516.16;;;9.91;100.00
57606;BME280;43430;48.204;11.556;2022-10-30T07:02:16;96520.63;;;10.04;100.00
57606;BME280;43430;48.204;11.556;2022-10-30T07:04:42;96511.50;;;10.13;100.00
57606;BME280;43430;48.204;11.556;2022-10-30T07:07:07;96517.75;;;10.25;100.00
57606;BME280;43430;48.204;11.556;2022-10-30T07:09:32;96520.22;;;10.33;100.00
57606;BME280;43430;48.204;11.556;2022-10-30T07:11:58;96521.56;;;10.49;100.00
57606;BME280;43430;48.204;11.556;2022-10-30T07:14:23;96522.16;;;10.58;100.00
57606;BME280;43430;48.204;11.556;2022-10-30T07:16:49;96516.06;;;10.64;100.00
57606;BME280;43430;48.204;11.556;2022-10-30T07:19:14;96512.75;;;10.82;100.00
57606;BME280;43430;48.204;11.556;2022-10-30T07:21:39;96508.88;;;10.84;100.00
57606;BME280;43430;48.204;11.556;2022-10-30T07:24:05;96507.78;;;10.99;100.00
57606;BME280;43430;48.204;11.556;2022-10-30T07:26:30;96500.81;;;11.11;100.00
57606;BME280;43430;48.204;11.556;2022-10-30T07:28:57;96496.06;;;11.26;100.00
57606;BME280;43430;48.204;11.556;2022-10-30T07:31:23;96491.97;;;11.30;100.00
57606;BME280;43430;48.204;11.556;2022-10-30T07:33:48;96502.50;;;11.37;100.00
57606;BME280;43430;48.204;11.556;2022-10-30T07:36:13;96492.28;;;11.47;100.00
57606;BME280;43430;48.204;11.556;2022-10-30T07:38:39;96493.88;;;11.48;100.00
57606;BME280;43430;48.204;11.556;2022-10-30T07:41:04;96496.47;;;11.55;100.00
57606;BME280;43430;48.204;11.556;2022-10-30T07:43:32;96500.47;;;11.64;100.00
57606;BME280;43430;48.204;11.556;2022-10-30T07:45:57;96500.47;;;11.64;100.00
57606;BME280;43430;48.204;11.556;2022-10-30T07:48:22;96489.00;;;11.77;100.00
57606;BME280;43430;48.204;11.556;2022-10-30T07:50:48;96493.22;;;11.84;100.00
57606;BME280;43430;48.204;11.556;2022-10-30T07:53:13;96486.41;;;11.95;100.00
57606;BME280;43430;48.204;11.556;2022-10-30T07:55:41;96487.53;;;12.06;100.00
57606;BME280;43430;48.204;11.556;2022-10-30T07:58:06;96485.03;;;12.11;100.00
57606;BME280;43430;48.204;11.556;2022-10-30T08:00:31;96493.56;;;12.31;100.00
57606;BME280;43430;48.204;11.556;2022-10-30T08:02:56;96481.25;;;12.44;100.00
57606;BME280;43430;48.204;11.556;2022-10-30T08:05:22;96486.38;;;12.57;100.00
57606;BME280;43430;48.204;11.556;2022-10-30T08:07:47;96482.72;;;12.58;100.00
57606;BME280;43430;48.204;11.556;2022-10-30T08:10:13;96489.16;;;12.62;100.00
57606;BME280;43430;48.204;11.556;2022-10-30T08:12:38;96484.41;;;12.71;100.00
57606;BME280;43430;48.204;11.556;2022-10-30T08:15:06;96482.47;;;12.78;100.00
57606;BME280;43430;48.204;11.556;2022-10-30T08:17:32;96477.47;;;12.88;100.00
57606;BME280;43430;48.204;11.556;2022-10-30T08:19:57;96473.69;;;12.96;100.00
57606;BME280;43430;48.204;11.556;2022-10-30T08:22:23;96466.59;;;13.08;100.00
57606;BME280;43430;48.204;11.556;2022-10-30T08:24:49;96460.81;;;13.29;100.00
57606;BME280;43430;48.204;11.556;2022-10-30T08:27:14;96459.94;;;13.47;100.00
57606;BME280;43430;48.204;11.556;2022-10-30T08:29:39;96448.78;;;13.69;100.00
57606;BME280;43430;48.204;11.556;2022-10-30T08:32:05;96450.53;;;13.87;100.00
57606;BME280;43430;48.204;11.556;2022-10-30T08:34:31;96444.78;;;14.01;100.00
57606;BME280;43430;48.204;11.556;2022-10-30T08:36:58;96442.44;;;14.17;100.00
57606;BME280;43430;48.204;11.556;2022-10-30T08:39:24;96444.28;;;14.28;100.00
57606;BME280;43430;48.204;11.556;2022-10-30T08:41:49;96444.38;;;14.33;100.00
57606;BME280;43430;48.204;11.556;2022-10-30T08:44:15;96441.13;;;14.43;100.00
57606;BME280;43430;48.204;11.556;2022-10-30T08:46:40;96443.31;;;14.58;100.00
57606;BME280;43430;48.204;11.556;2022-10-30T08:49:05;96449.28;;;14.77;100.00
57606;BME280;43430;48.204;11.556;2022-10-30T08:51:32;96447.34;;;14.89;100.00
57606;BME280;43430;48.204;11.556;2022-10-30T08:53:58;96443.03;;;15.00;100.00
57606;BME280;43430;48.204;11.556;2022-10-30T08:56:23;96438.06;;;15.03;100.00
57606;BME280;43430;48.204;11.556;2022-10-30T08:58:51;96440.91;;;15.13;100.00
57606;BME280;43430;48.204;11.556;2022-10-30T09:01:17;96441.47;;;15.15;100.00
57606;BME280;43430;48.204;11.556;2022-10-30T09:03:43;96431.91;;;15.14;100.00
57606;BME280;43430;48.204;11.556;2022-10-30T09:06:09;96428.53;;;15.19;100.00
57606;BME280;43430;48.204;11.556;2022-10-30T09:08:35;96420.63;;;15.24;100.00
57606;BME280;43430;48.204;11.556;2022-10-30T09:11:00;96422.56;;;15.29;100.00
57606;BME280;43430;48.204;11.556;2022-10-30T09:13:26;96426.75;;;15.41;100.00
57606;BME280;43430;48.204;11.556;2022-10-30T09:15:51;96429.03;;;15.50;100.00
57606;BME280;43430;48.204;11.556;2022-10-30T09:18:17;96420.91;;;15.56;100.00
57606;BME280;43430;48.204;11.556;2022-10-30T09:20:42;96428.47;;;15.64;100.00
57606;BME280;43430;48.204;11.556;2022-10-30T09:23:07;96423.25;;;15.70;100.00
57606;BME280;43430;48.204;11.556;2022-10-30T09:25:33;96424.88;;;15.71;100.00
57606;BME280;43430;48.204;11.556;2022-10-30T09:27:58;96415.75;;;15.83;100.00
57606;BME280;43430;48.204;11.556;2022-10-30T09:30:24;96422.50;;;15.91;100.00
57606;BME280;43430;48.204;11.556;2022-10-30T09:33:02;96419.72;;;16.03;100.00
57606;BME280;43430;48.204;11.556;2022-10-30T09:35:28;96426.38;;;16.22;100.00
57606;BME280;43430;48.204;11.556;2022-10-30T09:37:54;96420.72;;;16.35;100.00
57606;BME280;43430;48.204;11.556;2022-10-30T09:52:29;96418.72;;;16.92;100.00
57606;BME280;43430;48.204;11.556;2022-10-30T10:00:24;96403.97;;;17.38;100.00
57606;BME280;43430;48.204;11.556;2022-10-30T10:08:13;96408.56;;;17.48;100.00
57606;BME280;43430;48.204;11.556;2022-10-30T10:11:10;96401.16;;;17.55;100.00
57606;BME280;43430;48.204;11.556;2022-10-30T10:16:22;96404.91;;;17.91;100.00
57606;BME280;43430;48.204;11.556;2022-10-30T10:22:01;96400.25;;;18.14;100.00
57606;BME280;43430;48.204;11.556;2022-10-30T10:24:36;96405.59;;;18.19;100.00
57606;BME280;43430;48.204;11.556;2022-10-30T10:30:13;96407.19;;;18.20;100.00
57606;BME280;43430;48.204;11.556;2022-10-30T10:32:59;96399.78;;;18.37;100.00
57606;BME280;43430;48.204;11.556;2022-10-30T10:40:49;96407.41;;;18.71;100.00
57606;BME280;43430;48.204;11.556;2022-10-30T10:51:41;96393.81;;;18.78;100.00
57606;BME280;43430;48.204;11.556;2022-10-30T10:54:11;96397.59;;;18.92;100.00
57606;BME280;43430;48.204;11.556;2022-10-30T10:56:42;96396.03;;;19.01;100.00
57606;BME280;43430;48.204;11.556;2022-10-30T10:59:15;96394.97;;;19.12;100.00
57606;BME280;43430;48.204;11.556;2022-10-30T11:01:47;96393.91;;;19.18;100.00
57606;BME280;43430;48.204;11.556;2022-10-30T11:04:44;96388.28;;;19.15;100.00
57606;BME280;43430;48.204;11.556;2022-10-30T11:09:40;96380.81;;;19.27;100.00
57606;BME280;43430;48.204;11.556;2022-10-30T11:12:06;96377.59;;;19.35;100.00
57606;BME280;43430;48.204;11.556;2022-10-30T11:14:32;96374.41;;;19.49;100.00
57606;BME280;43430;48.204;11.556;2022-10-30T11:17:04;96372.78;;;19.42;100.00
57606;BME280;43430;48.204;11.556;2022-10-30T11:19:34;96370.94;;;19.48;100.00
57606;BME280;43430;48.204;11.556;2022-10-30T11:22:00;96377.06;;;19.49;100.00
57606;BME280;43430;48.204;11.556;2022-10-30T11:24:31;96370.66;;;19.55;100.00
57606;BME280;43430;48.204;11.556;2022-10-30T11:27:15;96374.41;;;19.64;100.00
57606;BME280;43430;48.204;11.556;2022-10-30T11:29:53;96360.47;;;19.62;100.00
57606;BME280;43430;48.204;11.556;2022-10-30T11:32:20;96355.38;;;19.60;100.00
57606;BME280;43430;48.204;11.556;2022-10-30T11:37:35;96352.47;;;19.67;100.00
57606;BME280;43430;48.204;11.556;2022-10-30T11:40:25;96357.25;;;19.60;100.00
57606;BME280;43430;48.204;11.556;2022-10-30T11:45:23;96348.69;;;19.78;100.00
57606;BME280;43430;48.204;11.556;2022-10-30T11:47:51;96348.41;;;19.90;100.00
57606;BME280;43430;48.204;11.556;2022-10-30T11:50:22;96346.53;;;19.90;100.00
57606;BME280;43430;48.204;11.556;2022-10-30T11:52:51;96339.84;;;19.93;100.00
57606;BME280;43430;48.204;11.556;2022-10-30T11:55:22;96336.59;;;20.01;100.00
57606;BME280;43430;48.204;11.556;2022-10-30T11:57:51;96333.38;;;19.99;100.00
57606;BME280;43430;48.204;11.556;2022-10-30T12:00:18;96330.47;;;19.90;100.00
57606;BME280;43430;48.204;11.556;2022-10-30T12:02:46;96331.03;;;19.92;100.00
57606;BME280;43430;48.204;11.556;2022-10-30T12:07:50;96322.94;;;20.08;100.00
57606;BME280;43430;48.204;11.556;2022-10-30T12:10:24;96325.59;;;20.08;100.00
57606;BME280;43430;48.204;11.556;2022-10-30T12:12:49;96323.47;;;20.10;100.00
57606;BME280;43430;48.204;11.556;2022-10-30T12:17:52;96310.09;;;20.05;100.00
57606;BME280;43430;48.204;11.556;2022-10-30T12:20:18;96312.50;;;20.01;100.00
57606;BME280;43430;48.204;11.556;2022-10-30T12:22:45;96310.13;;;19.95;100.00
57606;BME280;43430;48.204;11.556;2022-10-30T12:27:46;96301.56;;;19.87;100.00
57606;BME280;43430;48.204;11.556;2022-10-30T12:30:16;96298.38;;;19.85;100.00
57606;BME280;43430;48.204;11.556;2022-10-30T12:33:05;96294.63;;;19.81;100.00
57606;BME280;43430;48.204;11.556;2022-10-30T12:35:41;96296.50;;;19.86;100.00
57606;BME280;43430;48.204;11.556;2022-10-30T12:38:27;96291.88;;;20.02;100.00
57606;BME280;43430;48.204;11.556;2022-10-30T12:41:23;96296.94;;;20.13;100.00
57606;BME280;43430;48.204;11.556;2022-10-30T12:44:07;96301.47;;;20.13;100.00
57606;BME280;43430;48.204;11.556;2022-10-30T12:46:47;96294.47;;;20.27;100.00
57606;BME280;43430;48.204;11.556;2022-10-30T12:49:52;96290.63;;;20.44;100.00
57606;BME280;43430;48.204;11.556;2022-10-30T12:54:50;96277.34;;;20.73;100.00
57606;BME280;43430;48.204;11.556;2022-10-30T12:57:53;96282.47;;;20.69;100.00
57606;BME280;43430;48.204;11.556;2022-10-30T13:00:22;96274.88;;;20.81;98.05
57606;BME280;43430;48.204;11.556;2022-10-30T13:02:58;96278.03;;;20.89;100.00
57606;BME280;43430;48.204;11.556;2022-10-30T13:05:47;96277.69;;;21.00;94.93
57606;BME280;43430;48.204;11.556;2022-10-30T13:08:31;96274.00;;;20.91;92.89
57606;BME280;43430;48.204;11.556;2022-10-30T13:14:00;96268.72;;;20.81;100.00
57606;BME280;43430;48.204;11.556;2022-10-30T13:16:29;96270.81;;;20.89;100.00
57606;BME280;43430;48.204;11.556;2022-10-30T13:18:58;96263.25;;;20.96;100.00
57606;BME280;43430;48.204;11.556;2022-10-30T13:22:03;96263.50;;;20.95;99.54
57606;BME280;43430;48.204;11.556;2022-10-30T13:25:12;96268.63;;;20.91;100.00
57606;BME280;43430;48.204;11.556;2022-10-30T13:30:39;96268.88;;;20.95;100.00
57606;BME280;43430;48.204;11.556;2022-10-30T13:33:15;96272.16;;;20.86;100.00
57606;BME280;43430;48.204;11.556;2022-10-30T13:36:09;96266.50;;;20.88;100.00
57606;BME280;43430;48.204;11.556;2022-10-30T13:50:14;96262.88;;;21.08;100.00
57606;BME280;43430;48.204;11.556;2022-10-30T13:52:47;96262.59;;;21.09;100.00
57606;BME280;43430;48.204;11.556;2022-10-30T13:55:26;96252.94;;;21.08;100.00
57606;BME280;43430;48.204;11.556;2022-10-30T14:11:34;96258.44;;;21.22;100.00
57606;BME280;43430;48.204;11.556;2022-10-30T14:14:05;96259.75;;;21.25;100.00
57606;BME280;43430;48.204;11.556;2022-10-30T14:17:16;96260.06;;;21.23;100.00
57606;BME280;43430;48.204;11.556;2022-10-30T14:22:29;96261.84;;;21.04;100.00
57606;BME280;43430;48.204;11.556;2022-10-30T14:24:56;96260.50;;;21.01;100.00
57606;BME280;43430;48.204;11.556;2022-10-30T14:27:27;96263.00;;;20.93;100.00
57606;BME280;43430;48.204;11.556;2022-10-30T14:29:53;96266.47;;;20.93;100.00
57606;BME280;43430;48.204;11.556;2022-10-30T14:34:55;96264.91;;;20.87;100.00
57606;BME280;43430;48.204;11.556;2022-10-30T14:39:47;96264.22;;;20.71;100.00
57606;BME280;43430;48.204;11.556;2022-10-30T14:42:22;96266.16;;;20.66;100.00
57606;BME280;43430;48.204;11.556;2022-10-30T14:44:58;96267.56;;;20.53;100.00
57606;BME280;43430;48.204;11.556;2022-10-30T14:47:48;96267.59;;;20.48;100.00
57606;BME280;43430;48.204;11.556;2022-10-30T14:58:31;96276.88;;;20.06;100.00
57606;BME280;43430;48.204;11.556;2022-10-30T15:06:33;96276.47;;;19.73;100.00
57606;BME280;43430;48.204;11.556;2022-10-30T15:11:48;96282.38;;;19.50;100.00
57606;BME280;43430;48.204;11.556;2022-10-30T15:14:26;96285.63;;;19.36;100.00
57606;BME280;43430;48.204;11.556;2022-10-30T15:16:53;96280.31;;;19.11;100.00